createdAt,value
2022-09-13T00:03:36.065Z,16.24
2022-09-13T00:08:39.772Z,16.23
2022-09-13T00:13:44.953Z,16.04
2022-09-13T00:18:49.409Z,16.01
2022-09-13T00:23:54.792Z,15.77
2022-09-13T00:29:00.486Z,15.86
2022-09-13T00:34:04.003Z,15.87
2022-09-13T00:39:07.421Z,15.82
2022-09-13T00:44:43.804Z,15.72
2022-09-13T00:49:54.039Z,15.60
2022-09-13T00:55:04.606Z,15.40
2022-09-13T01:00:13.639Z,15.41
2022-09-13T01:05:21.285Z,15.32
2022-09-13T01:10:24.742Z,15.51
2022-09-13T01:15:28.238Z,15.49
2022-09-13T01:20:46.873Z,15.38
2022-09-13T01:26:21.227Z,15.19
2022-09-13T01:31:34.812Z,15.09
2022-09-13T01:36:52.730Z,15.14
2022-09-13T01:42:07.193Z,14.95
2022-09-13T01:47:24.256Z,14.80
2022-09-13T01:52:35.907Z,14.73
2022-09-13T01:57:45.256Z,14.69
2022-09-13T02:02:54.412Z,14.66
2022-09-13T02:08:03.233Z,14.14
2022-09-13T02:13:09.414Z,14.13
2022-09-13T02:18:21.281Z,13.90
2022-09-13T02:23:31.530Z,14.11
2022-09-13T02:28:38.242Z,14.11
2022-09-13T02:33:47.561Z,14.13
2022-09-13T02:38:56.164Z,14.13
2022-09-13T02:44:06.565Z,14.06
2022-09-13T02:49:17.950Z,14.00
2022-09-13T02:54:27.026Z,13.83
2022-09-13T02:59:30.446Z,13.56
2022-09-13T03:04:36.377Z,13.19
2022-09-13T03:09:44.085Z,13.42
2022-09-13T03:14:56.791Z,13.53
2022-09-13T03:20:20.344Z,13.46
2022-09-13T03:25:34.869Z,13.36
2022-09-13T03:30:41.924Z,13.42
2022-09-13T03:35:56.277Z,13.50
2022-09-13T03:41:03.513Z,13.39
2022-09-13T03:46:12.288Z,13.45
2022-09-13T03:51:17.660Z,13.47
2022-09-13T03:56:22.346Z,13.73
2022-09-13T04:01:26.663Z,13.83
2022-09-13T04:06:31.884Z,13.60
2022-09-13T04:11:35.265Z,13.62
2022-09-13T04:16:38.706Z,13.52
2022-09-13T04:21:43.601Z,13.59
2022-09-13T04:26:49.773Z,13.67
2022-09-13T04:31:55.241Z,13.84
2022-09-13T04:37:00.205Z,13.90
2022-09-13T04:42:03.910Z,14.09
2022-09-13T04:47:08.197Z,14.35
2022-09-13T04:52:13.405Z,14.67
2022-09-13T04:57:17.072Z,14.93
2022-09-13T05:02:20.565Z,15.07
2022-09-13T05:07:25.510Z,15.19
2022-09-13T05:12:28.896Z,15.25
2022-09-13T05:17:32.317Z,15.32
2022-09-13T05:22:37.478Z,15.39
2022-09-13T05:27:40.864Z,15.41
2022-09-13T05:32:44.227Z,15.47
2022-09-13T05:37:50.778Z,15.53
2022-09-13T05:42:54.570Z,15.67
2022-09-13T05:47:58.085Z,15.83
2022-09-13T05:53:02.951Z,15.96
2022-09-13T05:58:07.038Z,16.14
2022-09-13T06:03:11.082Z,16.33
2022-09-13T06:08:16.865Z,16.41
2022-09-13T06:13:20.224Z,16.49
2022-09-13T06:18:24.765Z,16.55
2022-09-13T06:23:30.415Z,16.86
2022-09-13T06:28:37.549Z,17.02
2022-09-13T06:33:42.430Z,17.25
2022-09-13T06:38:48.877Z,17.61
2022-09-13T06:43:55.427Z,17.92
2022-09-13T06:49:03.571Z,18.06
2022-09-13T06:54:08.780Z,18.20
2022-09-13T06:59:12.625Z,18.34
2022-09-13T07:04:19.024Z,18.66
2022-09-13T07:09:24.054Z,18.85
2022-09-13T07:14:29.797Z,18.95
2022-09-13T07:19:33.519Z,19.13
2022-09-13T07:24:39.261Z,19.28
2022-09-13T07:29:42.769Z,19.50
2022-09-13T07:34:46.161Z,19.78
2022-09-13T07:39:51.062Z,19.68
2022-09-13T07:44:54.598Z,20.14
2022-09-13T07:49:58.044Z,20.16
2022-09-13T07:55:02.922Z,20.19
2022-09-13T08:00:08.874Z,20.53
2022-09-13T08:05:15.481Z,20.79
2022-09-13T08:10:20.407Z,20.81
2022-09-13T08:15:24.170Z,21.00
2022-09-13T08:20:28.214Z,21.40
2022-09-13T08:25:34.155Z,21.57
2022-09-13T08:30:38.613Z,21.68
2022-09-13T08:35:43.111Z,21.74
2022-09-13T08:40:52.049Z,21.90
2022-09-13T08:46:01.885Z,21.89
2022-09-13T08:51:08.417Z,22.03
2022-09-13T08:56:20.936Z,22.11
2022-09-13T09:01:37.714Z,22.63
2022-09-13T09:06:41.909Z,23.01
2022-09-13T09:11:52.733Z,22.72
2022-09-13T09:17:01.278Z,22.90
2022-09-13T09:22:11.689Z,23.16
2022-09-13T09:27:18.325Z,22.53
2022-09-13T09:32:52.149Z,22.13
2022-09-13T09:38:10.350Z,22.58
2022-09-13T09:43:21.958Z,22.73
2022-09-13T09:48:32.323Z,23.39
2022-09-13T09:53:42.250Z,22.82
2022-09-13T09:58:48.277Z,23.55
2022-09-13T10:03:54.142Z,24.08
2022-09-13T10:09:01.914Z,24.40
2022-09-13T10:14:06.860Z,25.06
2022-09-13T10:19:28.166Z,24.47
2022-09-13T10:24:31.666Z,24.94
2022-09-13T10:29:37.584Z,25.74
2022-09-13T10:34:45.712Z,23.96
2022-09-13T10:39:58.915Z,22.69
2022-09-13T10:45:06.819Z,22.12
2022-09-13T10:50:24.571Z,22.01
2022-09-13T10:55:35.031Z,21.93
2022-09-13T11:00:47.850Z,21.34
2022-09-13T11:06:00.944Z,21.09
2022-09-13T11:11:13.856Z,21.38
2022-09-13T11:16:33.213Z,21.33
2022-09-13T11:21:51.467Z,21.28
2022-09-13T11:27:02.629Z,21.31
2022-09-13T11:32:21.543Z,21.23
2022-09-13T11:37:38.284Z,21.10
2022-09-13T11:42:51.673Z,21.21
2022-09-13T11:48:36.870Z,21.65
2022-09-13T11:53:58.410Z,22.14
2022-09-13T11:59:16.494Z,22.07
2022-09-13T12:04:30.499Z,21.98
2022-09-13T12:09:41.452Z,21.75
2022-09-13T12:14:51.573Z,21.69
2022-09-13T12:19:59.323Z,21.54
2022-09-13T12:25:07.755Z,21.38
2022-09-13T12:30:17.267Z,21.41
2022-09-13T12:35:29.712Z,21.26
2022-09-13T12:40:54.879Z,21.05
2022-09-13T12:46:16.579Z,21.03
2022-09-13T12:51:34.148Z,21.08
2022-09-13T12:56:47.422Z,21.20
2022-09-13T13:01:52.475Z,21.37
2022-09-13T13:07:00.711Z,21.60
2022-09-13T13:12:04.721Z,21.94
2022-09-13T13:17:41.008Z,21.54
2022-09-13T13:22:53.315Z,21.28
2022-09-13T13:27:58.953Z,21.12
2022-09-13T13:33:19.220Z,21.03
2022-09-13T13:38:48.932Z,20.95
2022-09-13T13:43:52.831Z,21.06
2022-09-13T13:48:56.853Z,21.03
2022-09-13T13:54:05.835Z,21.01
2022-09-13T13:59:16.193Z,21.01
2022-09-13T14:04:47.248Z,21.04
2022-09-13T14:10:00.592Z,21.18
2022-09-13T14:15:16.832Z,21.81
2022-09-13T14:20:22.443Z,21.88
2022-09-13T14:25:28.370Z,21.62
2022-09-13T14:30:36.130Z,21.73
2022-09-13T14:35:41.322Z,21.57
2022-09-13T14:40:49.636Z,21.33
2022-09-13T14:45:56.139Z,21.25
2022-09-13T14:51:02.841Z,21.08
2022-09-13T14:56:12.991Z,21.01
2022-09-13T15:01:19.784Z,20.90
2022-09-13T15:06:32.718Z,20.87
2022-09-13T15:11:40.538Z,20.89
2022-09-13T15:16:49.616Z,20.97
2022-09-13T15:21:53.160Z,21.10
2022-09-13T15:27:06.716Z,21.21
2022-09-13T15:32:22.784Z,21.35
2022-09-13T15:37:32.462Z,21.27
2022-09-13T15:42:37.242Z,20.97
2022-09-13T15:47:41.014Z,20.77
2022-09-13T15:52:44.445Z,20.63
2022-09-13T15:57:49.614Z,20.52
2022-09-13T16:02:53.880Z,20.33
2022-09-13T16:07:58.992Z,20.20
2022-09-13T16:13:03.942Z,20.00
2022-09-13T16:18:08.001Z,19.84
2022-09-13T16:23:11.589Z,19.64
2022-09-13T16:28:21.371Z,19.55
2022-09-13T16:33:25.441Z,19.51
2022-09-13T16:38:28.949Z,19.39
2022-09-13T16:43:34.289Z,19.31
2022-09-13T16:48:38.606Z,19.28
2022-09-13T16:53:43.234Z,19.12
2022-09-13T16:58:48.512Z,19.05
2022-09-13T17:03:54.734Z,18.83
2022-09-13T17:09:01.305Z,18.96
2022-09-13T17:14:09.005Z,18.77
2022-09-13T17:19:16.826Z,18.71
2022-09-13T17:24:20.477Z,18.69
2022-09-13T17:29:31.074Z,18.48
2022-09-13T17:34:35.515Z,18.52
2022-09-13T17:39:39.035Z,18.40
2022-09-13T17:44:44.206Z,18.49
2022-09-13T17:49:48.029Z,18.59
2022-09-13T17:54:51.971Z,18.60
2022-09-13T17:59:56.801Z,18.67
2022-09-13T18:05:04.603Z,18.70
2022-09-13T18:10:24.914Z,18.54
2022-09-13T18:15:34.538Z,18.42
2022-09-13T18:20:40.626Z,18.16
2022-09-13T18:25:44.669Z,18.15
2022-09-13T18:30:54.842Z,18.02
2022-09-13T18:35:59.622Z,17.94
2022-09-13T18:41:05.102Z,17.81
2022-09-13T18:46:12.277Z,17.69
2022-09-13T18:51:17.735Z,17.55
2022-09-13T18:56:23.494Z,17.52
2022-09-13T19:01:30.329Z,17.44
2022-09-13T19:06:36.359Z,17.42
2022-09-13T19:11:46.888Z,17.41
2022-09-13T19:16:54.127Z,17.42
2022-09-13T19:21:57.712Z,17.38
2022-09-13T19:27:01.627Z,17.20
2022-09-13T19:32:06.980Z,17.09
2022-09-13T19:37:10.462Z,17.07
2022-09-13T19:42:13.852Z,17.04
2022-09-13T19:52:42.026Z,16.73
2022-09-13T19:57:45.394Z,16.70
2022-09-13T20:02:50.750Z,16.65
2022-09-13T20:07:55.336Z,16.51
2022-09-13T20:12:59.356Z,16.45
2022-09-13T20:18:04.647Z,16.38
2022-09-13T20:23:08.506Z,16.30
2022-09-13T20:28:13.432Z,16.27
2022-09-13T20:33:18.584Z,16.21
2022-09-13T20:38:22.629Z,16.16
2022-09-13T20:43:26.090Z,16.22
2022-09-13T20:48:30.886Z,16.20
2022-09-13T20:53:34.784Z,16.19
2022-09-13T20:58:40.153Z,16.07
2022-09-13T21:03:44.983Z,16.07
2022-09-13T21:08:50.404Z,16.09
2022-09-13T21:13:55.731Z,16.21
2022-09-13T21:19:01.990Z,16.17
2022-09-13T21:24:09.930Z,16.20
2022-09-13T21:29:13.865Z,16.22
2022-09-13T21:34:20.217Z,16.14
2022-09-13T21:39:24.012Z,16.16
2022-09-13T21:44:28.425Z,16.17
2022-09-13T21:49:33.580Z,16.20
2022-09-13T21:54:37.006Z,16.23
2022-09-13T21:59:40.754Z,16.09
2022-09-13T22:04:45.583Z,16.12
2022-09-13T22:09:49.001Z,16.19
2022-09-13T22:14:52.403Z,16.20
2022-09-13T22:19:57.218Z,16.20
2022-09-13T22:25:00.619Z,16.22
2022-09-13T22:30:04.401Z,16.20
2022-09-13T22:35:10.934Z,16.22
2022-09-13T22:40:14.530Z,16.21
2022-09-13T22:45:18.273Z,16.07
2022-09-13T22:50:23.134Z,16.06
2022-09-13T22:55:26.531Z,16.01
2022-09-13T23:00:30.969Z,15.93
2022-09-13T23:05:36.098Z,15.81
2022-09-13T23:10:39.489Z,15.54
2022-09-13T23:15:43.160Z,15.56
2022-09-13T23:20:57.589Z,15.43
2022-09-13T23:26:05.450Z,15.35
2022-09-13T23:31:11.498Z,15.30
2022-09-13T23:36:18.891Z,15.21
2022-09-13T23:41:23.458Z,15.27
2022-09-13T23:46:27.106Z,15.13
2022-09-13T23:51:32.324Z,15.09
2022-09-13T23:56:36.892Z,15.08
